Latest Weather Observations for Norah Head

IDN60801

Issued at 6:35 am EDT Friday 28 November 2014 (issued every 30 minutes, with the page automatically refreshed every 10 minutes)

About weather observations | Map of weather stations | Latest weather observations for NSW | Other Formats
Station Details ID: 061366 Name: NORAH HEAD AWS Lat: -33.28 Lon: 151.58 Height: 18.8 m
Data from the previous 72 hours. | See also: Recent months at Norah Head
Date/Time
EDT
Temp
°C
App
Temp
°C
Dew
Point
Rel
Hum
%
Delta-T
°C
Wind Press
QNH
hPa
Press
MSL
hPa
Rain
since 9 am
mm
Dir
 
Spd
km/h
Gust
km/h
Spd
kts
Gust
kts
28/06:30am 19.0 15.5 13.4 70 3.2 SE 24 28 13 15 1022.2 1022.1 0.0
28/06:00am 18.9 15.4 13.5 71 3.1 SE 24 30 13 16 1022.0 1021.9 0.0
28/05:30am 18.8 14.9 13.4 71 3.1 SE 26 33 14 18 1021.7 1021.6 0.0
28/05:00am 18.8 15.0 13.6 72 3.0 SE 26 30 14 16 1021.8 1021.7 0.0
28/04:30am 18.9 16.1 14.2 74 2.7 SSE 22 30 12 16 1021.6 1021.5 0.0
28/04:00am 19.1 16.0 14.6 75 2.6 SSE 24 30 13 16 1021.6 1021.5 0.0
28/03:30am 19.1 16.6 14.1 73 2.9 SE 20 24 11 13 1021.6 1021.5 0.0
28/03:00am 19.0 16.3 13.6 71 3.1 SSE 20 26 11 14 1021.9 1021.8 0.0
28/02:30am 19.2 16.7 14.2 73 2.9 SE 20 24 11 13 1022.0 1021.9 0.0
28/02:00am 19.2 16.7 14.0 72 3.0 SE 20 28 11 15 1022.1 1022.0 0.0
28/01:30am 19.0 16.4 13.8 72 3.0 SE 20 26 11 14 1022.5 1022.4 0.0
28/01:00am 18.9 15.6 14.0 73 2.8 SE 24 28 13 15 1022.8 1022.7 0.0
28/12:30am 19.1 16.2 14.1 73 2.9 SE 22 24 12 13 1023.1 1023.0 0.0
28/12:00am 19.2 16.8 14.5 74 2.7 SE 20 26 11 14 1023.4 1023.3 0.0
 
Date/Time
EDT
Temp
°C
App
Temp
°C
Dew
Point
Rel
Hum
%
Delta-T
°C
Wind Press
QNH
hPa
Press
MSL
hPa
Rain
since 9 am
mm
Dir
 
Spd
km/h
Gust
km/h
Spd
kts
Gust
kts
27/11:30pm 19.2 16.5 14.7 75 2.6 SE 22 28 12 15 1023.5 1023.4 0.0
27/11:00pm 19.0 15.4 14.1 73 2.8 SE 26 30 14 16 1023.7 1023.6 0.0
27/10:30pm 19.4 16.4 14.9 75 2.6 SE 24 30 13 16 1023.7 1023.6 0.0
27/10:00pm 19.4 16.1 14.9 75 2.6 SE 26 32 14 17 1023.7 1023.6 0.0
27/09:30pm 19.4 16.8 14.9 75 2.6 ESE 22 26 12 14 1023.7 1023.6 0.0
27/09:00pm 19.4 16.3 14.6 74 2.8 SE 24 28 13 15 1023.5 1023.4 0.0
27/08:30pm 19.4 16.3 14.6 74 2.8 SE 24 30 13 16 1023.3 1023.2 0.0
27/08:00pm 19.3 15.9 14.8 75 2.6 SE 26 32 14 17 1023.0 1022.9 0.0
27/07:30pm 19.4 15.2 14.6 74 2.8 SE 30 35 16 19 1022.7 1022.6 0.0
27/07:00pm 19.6 15.6 15.3 76 2.5 SSE 30 35 16 19 1022.4 1022.3 0.0
27/06:30pm 19.4 14.7 14.4 73 2.9 SE 32 37 17 20 1022.1 1022.0 0.0
27/06:00pm 20.0 15.7 15.4 75 2.7 SSE 32 37 17 20 1021.7 1021.6 0.0
27/05:30pm 20.2 16.2 15.2 73 2.9 SSE 30 37 16 20 1021.7 1021.6 0.0
27/05:00pm 20.9 17.1 15.7 72 3.1 SSE 30 35 16 19 1021.6 1021.5 0.0
27/04:30pm 20.6 16.0 15.2 71 3.2 SSE 33 39 18 21 1021.6 1021.5 0.0
27/04:00pm 20.5 15.7 15.5 73 3.0 SSE 35 41 19 22 1021.7 1021.6 0.0
27/03:30pm 20.5 15.3 15.5 73 3.0 SSE 37 43 20 23 1021.6 1021.5 0.0
27/03:00pm 20.8 15.7 15.8 73 3.0 SSE 37 41 20 22 1021.6 1021.5 0.0
27/02:30pm 21.2 16.9 16.0 72 3.1 SSE 33 41 18 22 1021.7 1021.6 0.0
27/02:00pm 21.7 17.8 16.4 72 3.2 SSE 32 39 17 21 1021.6 1021.5 0.0
27/01:30pm 22.6 18.5 16.4 68 3.8 SSE 33 37 18 20 1021.5 1021.4 0.0
27/01:00pm 22.2 18.2 16.2 69 3.6 SSE 32 37 17 20 1021.5 1021.4 0.0
27/12:30pm 22.6 18.6 16.2 67 3.9 SE 32 37 17 20 1021.6 1021.5 0.0
27/12:00pm 22.6 18.4 17.1 71 3.4 SSE 35 43 19 23 1021.3 1021.2 0.0
27/11:30am 21.5 17.0 16.5 73 3.0 SE 35 41 19 22 1021.3 1021.2 0.0
27/11:00am 21.8 16.8 16.1 70 3.4 SE 37 43 20 23 1021.3 1021.2 0.0
27/10:30am 22.3 17.3 17.0 72 3.3 SE 39 44 21 24 1021.0 1020.9 0.0
27/10:00am 21.7 16.1 16.6 73 3.1 SSE 41 46 22 25 1021.0 1020.9 0.0
27/09:30am 22.0 16.6 16.9 73 3.1 SE 41 46 22 25 1020.9 1020.8 0.0
27/09:00am 20.6 15.7 16.4 77 2.5 SE 37 41 20 22 1020.9 1020.8 0.0
27/08:30am 20.7 15.1 16.5 77 2.5 SSE 41 44 22 24 1020.5 1020.4 0.0
27/08:00am 20.3 15.0 17.3 83 1.8 SSE 41 48 22 26 1020.2 1020.1 0.0
27/07:30am 20.0 15.1 17.2 84 1.7 SSE 39 44 21 24 1019.9 1019.8 0.0
27/07:00am 19.9 14.2 17.3 85 1.6 SSE 43 50 23 27 1019.3 1019.2 0.0
27/06:30am 19.7 14.6 17.7 88 1.2 SSE 41 48 22 26 1018.9 1018.8 0.0
27/06:00am 20.5 16.8 17.5 83 1.8 SSE 33 37 18 20 1018.2 1018.1 0.0
27/05:30am 20.6 17.8 18.2 86 1.5 SSE 30 33 16 18 1018.1 1018.0 0.0
27/05:00am 20.6 18.2 18.2 86 1.5 SSE 28 32 15 17 1017.6 1017.5 0.0
27/04:30am 20.5 17.7 18.1 86 1.5 SSE 30 33 16 18 1017.5 1017.4 0.0
27/04:00am 20.5 18.5 18.3 87 1.4 SSE 26 30 14 16 1017.2 1017.1 0.0
27/03:30am 20.6 18.6 18.4 87 1.4 SSE 26 30 14 16 1017.0 1016.9 0.0
27/03:00am 20.6 19.0 18.4 87 1.4 SE 24 30 13 16 1017.0 1016.9 0.0
27/02:30am 20.8 19.7 18.6 87 1.4 SE 22 26 12 14 1017.2 1017.1 0.0
27/02:00am 20.6 19.9 18.7 89 1.2 SE 20 24 11 13 1017.4 1017.3 0.0
27/01:30am 20.7 20.1 18.5 87 1.4 SE 19 22 10 12 1017.6 1017.5 0.0
27/01:00am 20.9 20.3 18.5 86 1.5 ESE 19 22 10 12 1017.8 1017.7 0.0
27/12:30am 20.9 20.4 18.7 87 1.4 ESE 19 22 10 12 1018.0 1017.9 0.0
27/12:00am 20.8 20.8 18.9 89 1.2 ESE 17 20 9 11 1018.2 1018.1 0.0
 
Date/Time
EDT
Temp
°C
App
Temp
°C
Dew
Point
Rel
Hum
%
Delta-T
°C
Wind Press
QNH
hPa
Press
MSL
hPa
Rain
since 9 am
mm
Dir
 
Spd
km/h
Gust
km/h
Spd
kts
Gust
kts
26/11:30pm 21.1 21.5 19.0 88 1.3 ESE 15 20 8 11 1018.2 1018.1 0.0
26/11:00pm 21.3 21.4 19.2 88 1.3 ESE 17 19 9 10 1018.1 1018.0 0.0
26/10:30pm 21.3 21.3 19.0 87 1.5 E 17 20 9 11 1018.0 1017.9 0.0
26/10:00pm 21.1 20.5 18.9 87 1.4 ENE 20 24 11 13 1017.7 1017.6 0.0
26/09:30pm 20.8 19.3 18.6 87 1.4 ENE 24 28 13 15 1017.4 1017.3 0.0
26/09:00pm 20.8 19.3 18.6 87 1.4 NE 24 30 13 16 1016.9 1016.8 0.0
26/08:30pm 20.9 18.5 18.3 85 1.6 NE 28 33 15 18 1016.8 1016.7 0.0
26/08:00pm 20.8 17.4 17.8 83 1.9 NE 32 35 17 19 1016.4 1016.3 0.0
26/07:30pm 20.9 17.4 17.5 81 2.1 NE 32 39 17 21 1016.1 1016.0 0.0
26/07:00pm 21.3 18.3 17.7 80 2.2 NE 30 35 16 19 1016.1 1016.0 0.0
26/06:30pm 21.5 18.6 17.9 80 2.2 NE 30 35 16 19 1015.8 1015.7 0.0
26/06:00pm 21.6 19.0 17.8 79 2.4 NE 28 37 15 20 1015.5 1015.4 0.0
26/05:30pm 21.3 17.5 17.1 77 2.6 NE 33 39 18 21 1015.3 1015.2 0.0
26/05:00pm 21.8 18.3 17.8 78 2.5 NE 33 43 18 23 1015.5 1015.4 0.0
26/04:30pm 22.5 19.3 18.1 76 2.7 NE 32 37 17 20 1015.4 1015.3 0.0
26/04:00pm 22.3 19.3 17.7 75 2.9 NE 30 35 16 19 1015.7 1015.6 0.0
26/03:30pm 22.7 20.8 17.6 73 3.2 NE 24 30 13 16 1016.3 1016.2 0.0
26/03:00pm 21.8 20.8 17.6 77 2.6 NE 19 20 10 11 1017.0 1016.9 0.0
26/02:30pm 21.7 19.7 17.3 76 2.7 NE 24 26 13 14 1016.9 1016.8 0.0
26/02:00pm 21.6 20.0 17.4 77 2.6 NE 22 26 12 14 1017.2 1017.1 0.0
26/01:30pm 21.7 19.9 16.9 74 2.9 NE 22 26 12 14 1017.5 1017.4 0.0
26/01:00pm 21.9 20.7 17.1 74 2.9 NE 19 24 10 13 1017.7 1017.6 0.0
26/12:30pm 21.6 20.3 17.2 76 2.7 E 20 24 11 13 1018.2 1018.1 0.0
26/12:00pm 21.6 20.1 16.8 74 2.9 E 20 24 11 13 1018.4 1018.3 0.0
26/11:30am 21.7 19.6 16.2 71 3.3 E 22 26 12 14 1018.9 1018.8 0.0
26/11:00am 22.1 20.1 16.4 70 3.5 E 22 26 12 14 1019.1 1019.0 0.0
26/10:30am 21.8 20.1 16.3 71 3.3 E 20 22 11 12 1019.2 1019.1 0.0
26/10:00am 21.4 19.6 15.9 71 3.3 E 20 24 11 13 1019.4 1019.3 0.0
26/09:30am 21.0 18.6 15.5 71 3.3 E 22 26 12 14 1019.3 1019.2 0.0
26/09:00am 20.9 18.6 15.7 72 3.1 E 22 26 12 14 1019.3 1019.2 0.0
26/08:30am 20.4 17.6 15.4 73 3.0 ENE 24 28 13 15 1019.4 1019.3 0.0
26/08:00am 20.3 17.9 15.5 74 2.8 E 22 26 12 14 1019.3 1019.2 0.0
26/07:30am 20.5 18.1 15.3 72 3.1 ENE 22 26 12 14 1019.3 1019.2 0.0
26/07:00am 19.8 17.1 14.6 72 3.0 E 22 26 12 14 1019.2 1019.1 0.0
26/06:30am 19.7 16.9 14.3 71 3.1 E 22 26 12 14 1019.1 1019.0 0.0
26/06:00am 19.4 17.0 14.4 73 2.9 E 20 24 11 13 1019.1 1019.0 0.0
26/05:30am 19.3 16.5 14.3 73 2.9 E 22 26 12 14 1019.0 1018.9 0.0
26/05:00am 19.4 17.0 13.8 70 3.2 E 19 22 10 12 1018.8 1018.7 0.0
26/04:30am 19.8 17.6 14.4 71 3.1 E 19 22 10 12 1018.7 1018.6 0.0
26/04:00am 19.6 17.1 13.5 68 3.5 E 19 22 10 12 1018.8 1018.7 0.0
26/03:30am 19.4 17.3 13.6 69 3.3 ESE 17 19 9 10 1019.0 1018.9 0.0
26/03:00am 19.4 17.5 14.2 72 3.0 ESE 17 19 9 10 1019.1 1019.0 0.0
26/02:30am 19.4 17.8 14.9 75 2.6 E 17 19 9 10 1019.4 1019.3 0.0
26/02:00am 19.4 18.1 14.9 75 2.6 E 15 19 8 10 1019.4 1019.3 0.0
26/01:30am 19.4 18.0 14.4 73 2.9 E 15 19 8 10 1019.7 1019.6 0.0
26/01:00am 19.2 18.2 14.5 74 2.7 ENE 13 17 7 9 1020.2 1020.1 0.0
26/12:30am 19.6 18.7 14.8 74 2.8 E 13 15 7 8 1020.4 1020.3 0.0
26/12:00am 19.4 18.7 15.3 77 2.4 ENE 13 17 7 9 1020.6 1020.5 0.0
 
Date/Time
EDT
Temp
°C
App
Temp
°C
Dew
Point
Rel
Hum
%
Delta-T
°C
Wind Press
QNH
hPa
Press
MSL
hPa
Rain
since 9 am
mm
Dir
 
Spd
km/h
Gust
km/h
Spd
kts
Gust
kts
25/11:30pm 19.1 18.3 15.0 77 2.4 ENE 13 17 7 9 1020.5 1020.4 0.0
25/11:00pm 18.8 17.5 14.9 78 2.3 NE 15 17 8 9 1020.5 1020.4 0.0
25/10:30pm 19.1 17.6 15.4 79 2.2 ENE 17 20 9 11 1020.5 1020.4 0.0
25/10:00pm 19.2 17.8 15.5 79 2.2 ENE 17 20 9 11 1020.2 1020.1 0.0
25/09:30pm 19.3 17.8 15.4 78 2.3 ENE 17 19 9 10 1020.0 1019.9 0.0
25/09:00pm 19.1 17.7 15.6 80 2.1 ENE 17 20 9 11 1019.6 1019.5 0.0
25/08:30pm 19.1 17.3 15.6 80 2.1 ENE 19 22 10 12 1019.2 1019.1 0.0
25/08:00pm 19.6 17.8 15.5 77 2.4 ENE 19 22 10 12 1018.8 1018.7 0.0
25/07:30pm 19.8 18.1 15.7 77 2.4 ENE 19 22 10 12 1018.2 1018.1 0.0
25/07:00pm 20.2 18.3 15.8 76 2.6 E 20 24 11 13 1017.9 1017.8 0.0
25/06:30pm 20.1 18.1 15.5 75 2.7 E 20 26 11 14 1017.2 1017.1 0.0
25/06:00pm 20.0 18.0 15.4 75 2.7 E 20 24 11 13 1017.0 1016.9 0.0
25/05:30pm 19.8 17.6 15.0 74 2.8 ESE 20 24 11 13 1016.7 1016.6 0.0
25/05:00pm 20.2 17.9 15.6 75 2.7 ESE 22 28 12 15 1016.7 1016.6 0.0
25/04:30pm 20.4 17.5 16.0 76 2.6 SE 26 30 14 16 1016.6 1016.5 0.0
25/04:00pm 20.5 16.8 16.1 76 2.6 SSE 30 35 16 19 1016.4 1016.3 0.0
25/03:30pm 20.6 16.5 16.0 75 2.8 SSE 32 35 17 19 1016.2 1016.1 0.0
25/03:00pm 20.8 17.0 16.8 78 2.4 SSE 32 37 17 20 1016.2 1016.1 0.0
25/02:30pm 21.1 16.9 17.1 78 2.4 SSE 35 41 19 22 1016.2 1016.1 0.0
25/02:00pm 21.4 17.6 17.2 77 2.6 SSE 33 39 18 21 1016.1 1016.0 0.0
25/01:30pm 21.4 16.3 17.6 79 2.3 S 41 46 22 25 1016.0 1015.9 0.0
25/01:00pm 21.4 16.3 17.6 79 2.3 S 41 46 22 25 1015.7 1015.6 0.0
25/12:30pm 21.1 15.3 17.3 79 2.3 S 44 50 24 27 1015.5 1015.4 0.0
25/12:00pm 21.5 15.3 17.3 77 2.6 S 46 56 25 30 1015.1 1015.0 0.0
25/11:34am 22.9 17.3 17.4 71 3.4 S 43 52 23 28 1014.7 1014.6 0.0
25/11:30am 23.8 22.4 18.7 73 3.2 S 24 32 13 17 1014.8 1014.7 0.0
25/11:00am 24.4 24.9 19.2 73 3.3 S 15 20 8 11 1014.5 1014.4 0.0
25/10:30am 24.8 24.2 17.5 64 4.6 SSW 17 22 9 12 1014.1 1014.0 0.0
25/10:00am 24.9 26.4 18.8 69 3.9 W 9 15 5 8 1013.6 1013.5 0.0
25/09:30am 25.1 26.6 19.0 69 3.9 WNW 9 20 5 11 1013.1 1013.0 0.0
25/09:00am 24.3 26.2 18.9 72 3.4 W 7 22 4 12 1012.4 1012.3 9.4
25/08:30am 23.9 25.7 19.6 77 2.8 WNW 9 20 5 11 1012.2 1012.1 9.4
25/08:00am 23.3 24.9 19.2 78 2.6 W 9 20 5 11 1012.0 1011.9 9.4
25/07:30am 22.5 24.5 19.1 81 2.2 WSW 7 15 4 8 1011.1 1011.0 9.4
25/07:13am 22.3 23.7 20.4 89 1.2 WNW 13 22 7 12 1010.9 1010.8 9.4
25/07:00am 22.1 21.7 20.2 89 1.2 N 22 28 12 15 1008.7 1008.7 9.4

Other Formats:

Comma delimited format used in spreadsheet applications
http://www.bom.gov.au/fwo/IDN60801/IDN60801.95770.axf

JavaScript Object Notation format (JSON) in row-major order
http://www.bom.gov.au/fwo/IDN60801/IDN60801.95770.json